Time;durP1;ratioP1;P1;durP2;ratioP2;P2;SDS_P1;SDS_P2;PMS_P1;PMS_P2;Temp;Humidity;BMP_temperature;BMP_pressure;BME280_temperature;BME280_humidity;BME280_pressure;Samples;Min_cycle;Max_cycle;Signal;HPM_P1;HPM_P2
2023/12/16 00:02:20;;;;;;;27.60;25.17;;;11.70;99.90;;;;;;4976728;28;20382;-82
2023/12/16 00:04:46;;;;;;;28.13;26.15;;;11.70;99.90;;;;;;4975451;28;20054;-85
2023/12/16 00:07:13;;;;;;;28.30;25.60;;;11.60;99.90;;;;;;4943612;28;20089;-81
2023/12/16 00:09:39;;;;;;;27.67;25.42;;;11.60;99.90;;;;;;4943729;28;20050;-83
2023/12/16 00:12:06;;;;;;;27.77;25.30;;;11.60;99.90;;;;;;4959450;28;20396;-83
2023/12/16 00:14:36;;;;;;;30.85;25.65;;;11.60;99.90;;;;;;4959523;28;20480;-82
2023/12/16 00:17:03;;;;;;;26.80;25.02;;;11.50;99.90;;;;;;4956423;29;20035;-83
2023/12/16 00:19:30;;;;;;;26.92;24.83;;;11.50;99.90;;;;;;4924561;29;20034;-83
2023/12/16 00:21:57;;;;;;;27.50;24.98;;;11.50;99.90;;;;;;4940192;29;20032;-83
2023/12/16 00:24:23;;;;;;;27.52;25.17;;;11.60;99.90;;;;;;4924383;29;20031;-83
2023/12/16 00:26:53;;;;;;;27.42;25.05;;;11.60;99.90;;;;;;4936969;28;20484;-82
2023/12/16 00:29:20;;;;;;;27.55;25.33;;;11.60;99.90;;;;;;4975508;28;20039;-83
2023/12/16 00:31:47;;;;;;;26.60;24.60;;;11.60;99.90;;;;;;4943262;28;20082;-81
2023/12/16 00:34:14;;;;;;;27.65;25.45;;;11.60;99.90;;;;;;4959138;28;20558;-83
2023/12/16 00:36:41;;;;;;;26.75;25.05;;;11.50;99.90;;;;;;4967654;28;20023;-83
2023/12/16 00:39:09;;;;;;;27.50;25.48;;;11.50;99.90;;;;;;4943227;28;20041;-84
2023/12/16 00:41:36;;;;;;;26.85;24.67;;;11.50;99.90;;;;;;4942976;28;20178;-83
2023/12/16 00:44:02;;;;;;;29.55;24.90;;;11.60;99.90;;;;;;4942436;28;20050;-83
2023/12/16 00:46:29;;;;;;;26.40;24.27;;;11.60;99.90;;;;;;4968127;28;20487;-83
2023/12/16 00:48:59;;;;;;;27.30;25.05;;;11.50;99.90;;;;;;4959155;28;20042;-83
2023/12/16 00:51:25;;;;;;;26.73;24.50;;;11.50;99.90;;;;;;4942943;28;20026;-82
2023/12/16 00:53:52;;;;;;;27.00;24.73;;;11.50;99.90;;;;;;4959033;28;20109;-82
2023/12/16 00:56:18;;;;;;;25.75;23.92;;;11.60;99.90;;;;;;4958938;28;20074;-82
2023/12/16 00:58:44;;;;;;;27.48;24.38;;;11.60;99.90;;;;;;4959007;28;20058;-82
2023/12/16 01:01:16;;;;;;;27.15;24.55;;;11.60;99.90;;;;;;4958713;28;20031;-83
2023/12/16 01:03:43;;;;;;;26.60;24.30;;;11.60;99.90;;;;;;4942809;28;20094;-83
2023/12/16 01:06:09;;;;;;;27.13;24.17;;;11.60;99.90;;;;;;4958788;28;20023;-83
2023/12/16 01:08:36;;;;;;;26.75;24.27;;;11.60;99.90;;;;;;4958518;28;20031;-83
2023/12/16 01:11:06;;;;;;;26.50;24.42;;;11.60;99.90;;;;;;4958579;28;20026;-83
2023/12/16 01:13:35;;;;;;;28.33;25.48;;;11.60;99.90;;;;;;4942530;28;20035;-83
2023/12/16 01:16:02;;;;;;;28.35;25.48;;;11.60;99.90;;;;;;4939142;29;20024;-83
2023/12/16 01:18:28;;;;;;;28.00;25.15;;;11.60;99.90;;;;;;4923324;29;20031;-83
2023/12/16 01:20:56;;;;;;;26.52;24.67;;;11.70;99.90;;;;;;4923382;29;20031;-82
2023/12/16 01:23:22;;;;;;;27.35;24.92;;;11.80;99.90;;;;;;4939282;29;20058;-83
2023/12/16 01:25:49;;;;;;;28.05;25.27;;;11.70;99.90;;;;;;4927008;28;20023;-83
2023/12/16 01:28:16;;;;;;;27.90;25.55;;;11.70;99.90;;;;;;4958409;28;20034;-84
2023/12/16 01:30:42;;;;;;;27.85;25.73;;;11.80;99.90;;;;;;4958487;28;20113;-83
2023/12/16 01:33:12;;;;;;;27.83;25.80;;;11.80;99.90;;;;;;4958100;28;20030;-82
2023/12/16 01:35:39;;;;;;;28.00;25.70;;;11.80;99.90;;;;;;4958117;28;20038;-83
2023/12/16 01:38:06;;;;;;;28.48;26.00;;;11.70;99.90;;;;;;4942361;28;20039;-83
2023/12/16 01:40:32;;;;;;;28.50;25.50;;;11.70;99.90;;;;;;4949425;28;20186;-83
2023/12/16 01:43:03;;;;;;;28.08;25.20;;;11.70;99.90;;;;;;4961196;28;20503;-83
2023/12/16 01:45:30;;;;;;;26.98;24.80;;;11.70;99.90;;;;;;4960090;28;20038;-83
2023/12/16 01:47:56;;;;;;;26.98;24.38;;;11.60;99.90;;;;;;4956038;28;20032;-82
2023/12/16 01:50:23;;;;;;;26.30;24.10;;;11.60;99.90;;;;;;4961219;28;20095;-83
2023/12/16 01:52:54;;;;;;;27.00;24.88;;;11.60;99.90;;;;;;4961023;28;20027;-83
2023/12/16 01:55:21;;;;;;;36.08;24.25;;;11.60;99.90;;;;;;4960867;28;20030;-83
2023/12/16 01:57:48;;;;;;;27.30;24.40;;;11.60;99.90;;;;;;4961217;28;20502;-83
2023/12/16 02:00:20;;;;;;;26.55;24.10;;;11.60;99.90;;;;;;4961893;28;20034;-83
2023/12/16 02:02:49;;;;;;;27.27;24.90;;;11.60;99.90;;;;;;4956213;28;20058;-83
2023/12/16 02:05:19;;;;;;;27.27;24.85;;;11.60;99.90;;;;;;4941838;28;20037;-83
2023/12/16 02:07:46;;;;;;;26.65;24.38;;;11.60;99.90;;;;;;4941706;28;20484;-83
2023/12/16 02:10:13;;;;;;;27.35;24.65;;;11.60;99.90;;;;;;4941694;28;20052;-82
2023/12/16 02:12:43;;;;;;;27.08;24.75;;;11.50;99.90;;;;;;4941518;28;20042;-83
2023/12/16 02:15:10;;;;;;;28.27;25.45;;;11.50;99.90;;;;;;4957719;28;20023;-82
2023/12/16 02:17:36;;;;;;;28.00;25.55;;;11.50;99.90;;;;;;4959082;28;20034;-83
2023/12/16 02:20:03;;;;;;;28.38;25.77;;;11.60;99.90;;;;;;4960947;28;20025;-82
2023/12/16 02:22:30;;;;;;;28.08;26.00;;;11.70;99.90;;;;;;4960652;28;20084;-83
2023/12/16 02:24:57;;;;;;;28.58;26.17;;;11.70;99.90;;;;;;4960686;28;20026;-82
2023/12/16 02:27:24;;;;;;;29.23;26.58;;;11.60;99.90;;;;;;4960904;28;20096;-83
2023/12/16 02:29:50;;;;;;;28.67;25.90;;;11.70;99.90;;;;;;4941833;28;20031;-83
2023/12/16 02:32:21;;;;;;;27.55;25.60;;;11.60;99.90;;;;;;4941725;28;20036;-83
2023/12/16 02:34:48;;;;;;;26.95;25.13;;;11.60;99.90;;;;;;4957522;28;20046;-83
2023/12/16 02:37:18;;;;;;;28.88;26.17;;;11.50;99.90;;;;;;4957637;28;20046;-84
2023/12/16 02:39:44;;;;;;;29.20;26.30;;;11.60;99.90;;;;;;4942419;28;20030;-84
2023/12/16 02:42:11;;;;;;;27.33;25.13;;;11.60;99.90;;;;;;4960641;28;20038;-83
2023/12/16 02:44:37;;;;;;;27.23;24.95;;;11.50;99.90;;;;;;4960588;28;20031;-83
2023/12/16 02:47:04;;;;;;;27.80;25.40;;;11.60;99.90;;;;;;4960702;28;20027;-83
2023/12/16 02:49:30;;;;;;;27.55;25.42;;;11.60;99.90;;;;;;4960792;28;20188;-83
2023/12/16 02:51:58;;;;;;;27.23;24.98;;;11.60;99.90;;;;;;4960337;28;20022;-84
2023/12/16 02:54:26;;;;;;;27.33;25.05;;;11.60;99.90;;;;;;4976719;28;20030;-84
2023/12/16 02:56:55;;;;;;;27.85;25.10;;;11.60;99.90;;;;;;4960655;28;20116;-83
2023/12/16 02:59:26;;;;;;;27.42;24.73;;;11.50;99.90;;;;;;4960498;28;20034;-83
2023/12/16 03:01:52;;;;;;;27.00;24.98;;;11.60;99.90;;;;;;4960537;28;20038;-83
2023/12/16 03:04:19;;;;;;;26.85;24.88;;;11.60;99.90;;;;;;4960674;28;20031;-83
2023/12/16 03:06:46;;;;;;;26.63;24.50;;;11.60;99.90;;;;;;4960415;28;20029;-82
2023/12/16 03:09:12;;;;;;;26.63;24.55;;;11.60;99.90;;;;;;4979686;28;20066;-83
2023/12/16 03:11:39;;;;;;;26.50;24.17;;;11.60;99.90;;;;;;4979209;28;20038;-82
2023/12/16 03:14:06;;;;;;;26.88;24.65;;;11.50;99.90;;;;;;4996205;28;20089;-84
2023/12/16 03:16:39;;;;;;;27.50;24.88;;;11.50;99.90;;;;;;4997539;28;20122;-83
2023/12/16 03:19:09;;;;;;;26.05;24.20;;;11.60;99.90;;;;;;4964069;28;20472;-83
2023/12/16 03:21:36;;;;;;;26.38;24.77;;;11.60;99.90;;;;;;4980150;28;20439;-83
2023/12/16 03:24:06;;;;;;;27.40;25.10;;;11.60;99.90;;;;;;4980209;28;20034;-83
2023/12/16 03:26:32;;;;;;;26.42;24.50;;;11.60;99.90;;;;;;4979901;28;20037;-83
2023/12/16 03:28:59;;;;;;;27.27;25.30;;;11.60;99.90;;;;;;4979891;28;20483;-83
2023/12/16 03:31:25;;;;;;;27.02;24.88;;;11.60;99.90;;;;;;4963835;28;20057;-83
2023/12/16 03:33:53;;;;;;;26.88;24.80;;;11.60;99.90;;;;;;4963576;28;20583;-84
2023/12/16 03:36:19;;;;;;;27.13;25.15;;;11.60;99.90;;;;;;4963196;28;20022;-83
2023/12/16 03:38:46;;;;;;;26.95;24.77;;;11.60;99.90;;;;;;4963771;28;20042;-82
2023/12/16 03:41:12;;;;;;;27.08;24.88;;;11.60;99.90;;;;;;4950443;28;20051;-83
2023/12/16 03:43:39;;;;;;;27.63;25.08;;;11.60;99.90;;;;;;4960322;28;20038;-84
2023/12/16 03:46:07;;;;;;;26.90;25.15;;;11.60;99.90;;;;;;4944331;28;20066;-83
2023/12/16 03:48:37;;;;;;;27.00;25.10;;;11.60;99.90;;;;;;4960469;28;20090;-83
2023/12/16 03:51:04;;;;;;;27.98;25.67;;;11.60;99.90;;;;;;4960366;28;20026;-83
2023/12/16 03:53:30;;;;;;;28.25;25.75;;;11.60;99.90;;;;;;4976421;28;20039;-84
2023/12/16 03:55:57;;;;;;;27.90;25.67;;;11.60;99.90;;;;;;4969719;28;20015;-83
2023/12/16 03:58:24;;;;;;;27.92;25.83;;;11.60;99.90;;;;;;4959452;28;20039;-83
2023/12/16 04:00:50;;;;;;;27.58;25.30;;;11.60;99.90;;;;;;4943935;28;20033;-83
2023/12/16 04:03:17;;;;;;;28.02;25.60;;;11.60;99.90;;;;;;4959920;28;20059;-84
2023/12/16 04:05:44;;;;;;;29.23;26.83;;;11.70;99.90;;;;;;4944101;28;20509;-84
2023/12/16 04:08:10;;;;;;;28.00;25.85;;;11.70;99.90;;;;;;4944356;28;20039;-85
2023/12/16 04:10:36;;;;;;;27.60;25.25;;;11.70;99.90;;;;;;4944370;28;20077;-85
2023/12/16 04:13:06;;;;;;;27.98;25.80;;;11.70;99.90;;;;;;4960194;28;20034;-85
2023/12/16 04:15:32;;;;;;;27.35;25.55;;;11.70;99.90;;;;;;4944254;28;20401;-84
2023/12/16 04:17:59;;;;;;;27.90;25.70;;;11.80;99.90;;;;;;4960194;28;20037;-86
2023/12/16 04:20:26;;;;;;;28.33;26.30;;;11.80;99.90;;;;;;4944259;28;20106;-88
2023/12/16 04:22:52;;;;;;;28.20;26.15;;;11.90;99.90;;;;;;4960348;28;20031;-88
2023/12/16 04:25:20;;;;;;;27.83;25.58;;;11.90;99.90;;;;;;4944323;28;20030;-89
2023/12/16 04:27:46;;;;;;;27.52;25.63;;;11.90;99.90;;;;;;4960157;28;20121;-83
2023/12/16 04:30:13;;;;;;;28.13;25.98;;;12.00;99.90;;;;;;4943834;28;20027;-83
2023/12/16 04:32:39;;;;;;;27.73;25.85;;;12.00;99.90;;;;;;4959013;28;20552;-83
2023/12/16 04:35:06;;;;;;;28.10;25.95;;;12.00;99.90;;;;;;4942884;28;20031;-82
2023/12/16 04:37:36;;;;;;;28.10;25.85;;;12.00;99.90;;;;;;4928892;29;20035;-83
2023/12/16 04:40:02;;;;;;;28.05;25.80;;;12.00;99.90;;;;;;4924028;29;20062;-82
2023/12/16 04:42:30;;;;;;;27.92;25.88;;;12.00;99.90;;;;;;4924214;29;20035;-84
2023/12/16 04:44:57;;;;;;;28.05;25.67;;;12.00;99.90;;;;;;4937439;28;20045;-82
2023/12/16 04:47:23;;;;;;;28.67;25.85;;;12.00;99.90;;;;;;4945730;29;20027;-83
2023/12/16 04:49:53;;;;;;;28.40;26.27;;;11.90;99.90;;;;;;4956772;29;20033;-82
2023/12/16 04:52:19;;;;;;;27.83;25.67;;;12.00;99.90;;;;;;4924193;29;20118;-83
2023/12/16 04:54:46;;;;;;;27.70;25.58;;;12.00;99.90;;;;;;4935787;28;20085;-82
2023/12/16 04:57:12;;;;;;;27.77;25.70;;;12.00;99.90;;;;;;4946889;29;20020;-82
2023/12/16 04:59:42;;;;;;;28.05;25.83;;;12.00;99.90;;;;;;4923746;29;20027;-82
2023/12/16 05:02:08;;;;;;;27.27;25.63;;;12.00;99.90;;;;;;4923556;29;20027;-82
2023/12/16 05:04:38;;;;;;;28.15;26.05;;;12.00;99.90;;;;;;4949249;28;20031;-82
2023/12/16 05:07:04;;;;;;;27.40;25.83;;;12.10;99.90;;;;;;4958515;28;20054;-82
2023/12/16 05:09:31;;;;;;;27.60;25.75;;;12.10;99.90;;;;;;4942479;28;20051;-82
2023/12/16 05:12:00;;;;;;;27.85;25.88;;;12.10;99.90;;;;;;4958560;28;20552;-82
2023/12/16 05:14:30;;;;;;;28.15;25.92;;;12.10;99.90;;;;;;4942761;28;20077;-83
2023/12/16 05:17:00;;;;;;;28.10;26.00;;;12.10;99.90;;;;;;4958986;28;20031;-83
2023/12/16 05:19:27;;;;;;;28.10;25.92;;;12.10;99.90;;;;;;4942528;28;20567;-81
2023/12/16 05:21:55;;;;;;;28.23;26.10;;;12.10;99.90;;;;;;4937943;29;20042;-82
2023/12/16 05:24:22;;;;;;;27.02;25.20;;;12.10;99.90;;;;;;4937694;29;20082;-81
2023/12/16 05:26:50;;;;;;;27.90;25.65;;;12.10;99.90;;;;;;4953852;29;20043;-82
2023/12/16 05:29:19;;;;;;;27.35;25.40;;;12.10;99.90;;;;;;4937865;29;20051;-82
2023/12/16 05:31:46;;;;;;;27.27;25.77;;;12.20;99.90;;;;;;4937099;29;20035;-81
2023/12/16 05:34:12;;;;;;;27.73;25.88;;;12.20;99.90;;;;;;4937518;29;20073;-82
2023/12/16 05:36:39;;;;;;;27.83;26.23;;;12.20;99.90;;;;;;4953713;29;20031;-82
2023/12/16 05:39:09;;;;;;;27.27;25.35;;;12.10;99.90;;;;;;4937716;29;20516;-82
2023/12/16 05:41:36;;;;;;;27.60;25.88;;;12.00;99.90;;;;;;4937566;28;20137;-82
2023/12/16 05:44:03;;;;;;;27.38;25.42;;;12.00;99.90;;;;;;4972928;28;20050;-83
2023/12/16 05:46:30;;;;;;;27.20;25.60;;;12.00;99.90;;;;;;4956797;28;20114;-83
2023/12/16 05:48:56;;;;;;;28.60;26.40;;;12.00;99.90;;;;;;4956735;28;20050;-82
2023/12/16 05:51:22;;;;;;;28.35;26.70;;;12.00;99.90;;;;;;4973103;28;20073;-82
2023/12/16 05:53:49;;;;;;;28.27;26.25;;;12.00;99.90;;;;;;4967610;28;20078;-82
2023/12/16 05:56:16;;;;;;;28.10;26.15;;;11.90;99.90;;;;;;4941845;28;20035;-82
2023/12/16 05:58:42;;;;;;;27.88;26.17;;;11.90;99.90;;;;;;4957479;28;20027;-80
2023/12/16 06:01:11;;;;;;;27.52;25.92;;;11.90;99.90;;;;;;4957424;28;20030;-82
2023/12/16 06:03:39;;;;;;;27.92;26.20;;;11.90;99.90;;;;;;4957007;28;20399;-82
2023/12/16 06:06:05;;;;;;;27.60;25.80;;;11.90;99.90;;;;;;4941520;28;20023;-83
2023/12/16 06:08:35;;;;;;;28.33;26.40;;;11.90;99.90;;;;;;4957502;28;20042;-83
2023/12/16 06:11:01;;;;;;;28.42;26.52;;;11.90;99.90;;;;;;4957894;28;20060;-82
2023/12/16 06:13:28;;;;;;;28.10;26.30;;;11.90;99.90;;;;;;4957401;28;20035;-82
2023/12/16 06:15:55;;;;;;;28.25;26.45;;;11.80;99.90;;;;;;4957535;28;20030;-83
2023/12/16 06:18:21;;;;;;;27.70;25.55;;;11.80;99.90;;;;;;4941755;28;20038;-82
2023/12/16 06:20:47;;;;;;;29.20;26.90;;;11.80;99.90;;;;;;4941489;28;20019;-82
2023/12/16 06:23:17;;;;;;;28.83;26.80;;;11.80;99.90;;;;;;4941731;28;20031;-83
2023/12/16 06:25:44;;;;;;;28.63;26.92;;;11.90;99.90;;;;;;4941305;28;20074;-83
2023/12/16 06:28:10;;;;;;;28.42;26.70;;;11.90;99.90;;;;;;4957346;28;20029;-82
2023/12/16 06:30:39;;;;;;;27.83;26.23;;;11.80;99.90;;;;;;4941348;28;20065;-82
2023/12/16 06:33:09;;;;;;;27.75;25.98;;;11.80;99.90;;;;;;4941227;28;20165;-83
2023/12/16 06:35:36;;;;;;;27.48;25.88;;;11.80;99.90;;;;;;4957304;28;20037;-82
2023/12/16 06:38:02;;;;;;;27.63;26.02;;;11.80;99.90;;;;;;4957269;28;20114;-82
2023/12/16 06:40:31;;;;;;;27.45;25.70;;;11.80;99.90;;;;;;4956945;28;20070;-84
2023/12/16 06:42:58;;;;;;;28.10;26.17;;;11.80;99.90;;;;;;4944183;28;20031;-82
2023/12/16 06:45:24;;;;;;;27.90;26.30;;;11.80;99.90;;;;;;4960918;28;20027;-82
2023/12/16 06:47:51;;;;;;;27.40;25.60;;;11.80;99.90;;;;;;4944914;28;20030;-82
2023/12/16 06:50:17;;;;;;;27.25;25.75;;;11.90;99.90;;;;;;4944900;28;20392;-83
2023/12/16 06:52:44;;;;;;;28.05;26.35;;;11.90;99.90;;;;;;4961004;28;20034;-82
2023/12/16 06:55:10;;;;;;;28.63;26.50;;;11.90;99.90;;;;;;4945159;28;20030;-83
2023/12/16 06:57:37;;;;;;;27.55;26.08;;;11.90;99.90;;;;;;4961043;28;20031;-83
2023/12/16 07:00:06;;;;;;;28.00;26.40;;;11.90;99.90;;;;;;4941545;29;20035;-83
2023/12/16 07:02:32;;;;;;;27.88;26.38;;;11.80;99.90;;;;;;4942105;28;20042;-83
2023/12/16 07:05:02;;;;;;;27.92;26.23;;;11.80;99.90;;;;;;4961038;28;20034;-83
2023/12/16 07:07:38;;;;;;;28.15;26.13;;;11.80;99.90;;;;;;4950190;29;20102;-82
2023/12/16 07:10:12;;;;;;;27.80;26.00;;;11.80;99.90;;;;;;4941687;29;20102;-83
2023/12/16 07:12:39;;;;;;;27.13;25.73;;;11.80;99.90;;;;;;4925937;28;20043;-82
2023/12/16 07:15:07;;;;;;;28.52;26.83;;;11.80;99.90;;;;;;4960851;28;20027;-83
2023/12/16 07:17:33;;;;;;;27.85;25.92;;;11.80;99.90;;;;;;4960720;28;20094;-83
2023/12/16 07:20:00;;;;;;;28.85;26.90;;;11.90;99.90;;;;;;4944894;28;20050;-82
2023/12/16 07:22:29;;;;;;;27.85;26.05;;;11.90;99.90;;;;;;4944890;28;20031;-83
2023/12/16 07:24:56;;;;;;;28.88;26.95;;;11.90;99.90;;;;;;4961002;28;20046;-83
2023/12/16 07:27:23;;;;;;;28.38;26.65;;;11.90;99.90;;;;;;4960471;28;20089;-83
2023/12/16 07:29:52;;;;;;;28.52;26.77;;;11.90;99.90;;;;;;4976744;28;20023;-83
2023/12/16 07:32:19;;;;;;;28.60;26.63;;;12.00;99.90;;;;;;4960356;28;20034;-82
2023/12/16 07:34:48;;;;;;;28.90;27.15;;;12.00;99.90;;;;;;4944103;28;20396;-82
2023/12/16 07:37:15;;;;;;;28.58;26.77;;;12.10;99.90;;;;;;4944356;28;20061;-83
2023/12/16 07:39:41;;;;;;;28.17;26.33;;;12.00;99.90;;;;;;4960090;28;20029;-83
2023/12/16 07:42:08;;;;;;;28.65;26.95;;;12.10;99.90;;;;;;4944204;28;20049;-81
2023/12/16 07:44:35;;;;;;;29.40;27.10;;;12.10;99.90;;;;;;4976769;28;20027;-83
2023/12/16 07:47:02;;;;;;;28.90;26.98;;;12.20;99.90;;;;;;4960306;28;20054;-82
2023/12/16 07:49:29;;;;;;;28.25;26.48;;;12.20;99.90;;;;;;4960075;28;20026;-82
2023/12/16 07:51:57;;;;;;;28.50;26.80;;;12.20;99.90;;;;;;4960429;28;20484;-85
2023/12/16 07:54:24;;;;;;;28.17;26.27;;;12.20;99.90;;;;;;4959697;28;20042;-85
2023/12/16 07:56:51;;;;;;;27.77;26.17;;;12.20;99.90;;;;;;4962528;28;20416;-82
2023/12/16 07:59:18;;;;;;;29.15;27.02;;;12.10;99.90;;;;;;4977152;28;20035;-83
2023/12/16 08:01:55;;;;;;;28.67;26.83;;;12.10;99.90;;;;;;4992255;28;20151;-83
2023/12/16 08:04:23;;;;;;;28.38;26.48;;;12.20;99.90;;;;;;4944161;28;20029;-82
2023/12/16 08:06:51;;;;;;;28.27;26.25;;;12.20;99.90;;;;;;4959948;28;20055;-83
2023/12/16 08:09:17;;;;;;;27.10;25.58;;;12.20;99.90;;;;;;4959957;28;20035;-82
2023/12/16 08:11:43;;;;;;;28.77;26.60;;;12.30;99.90;;;;;;4959860;28;20022;-83
2023/12/16 08:14:11;;;;;;;28.90;26.95;;;12.30;99.90;;;;;;4975153;28;20508;-81
2023/12/16 08:16:38;;;;;;;28.23;26.52;;;12.30;99.90;;;;;;4943072;28;20436;-81
2023/12/16 08:19:08;;;;;;;28.70;26.55;;;12.30;99.90;;;;;;4959130;28;20034;-81
2023/12/16 08:21:35;;;;;;;30.02;27.85;;;12.40;99.90;;;;;;4943142;28;20060;-82
2023/12/16 08:24:01;;;;;;;29.05;27.45;;;12.30;99.90;;;;;;4959088;28;20115;-83
2023/12/16 08:26:28;;;;;;;29.40;27.80;;;12.30;99.90;;;;;;4943124;28;20030;-82
2023/12/16 08:28:55;;;;;;;29.27;27.13;;;12.30;99.90;;;;;;4975078;28;20037;-82
2023/12/16 08:31:21;;;;;;;29.45;27.52;;;12.30;99.90;;;;;;4975023;28;20054;-82
2023/12/16 08:33:58;;;;;;;28.35;26.85;;;12.30;99.90;;;;;;4959027;28;20461;-82
2023/12/16 08:36:29;;;;;;;29.85;28.08;;;12.40;99.90;;;;;;4975182;28;20062;-83
2023/12/16 08:38:56;;;;;;;29.50;27.80;;;12.40;99.90;;;;;;4958915;28;20023;-81
2023/12/16 08:41:22;;;;;;;29.38;27.70;;;12.40;99.90;;;;;;4956809;28;20053;-82
2023/12/16 08:44:31;;;;;;;29.45;27.65;;;12.40;99.90;;;;;;4962201;28;20026;-82
2023/12/16 08:46:58;;;;;;;29.38;27.50;;;12.50;99.90;;;;;;4961747;28;20037;-83
2023/12/16 08:49:25;;;;;;;29.00;27.40;;;12.50;99.90;;;;;;4978259;28;20065;-82
2023/12/16 08:52:34;;;;;;;29.90;28.00;;;12.30;99.90;;;;;;4961923;28;20034;-83
2023/12/16 08:55:04;;;;;;;29.55;27.85;;;12.30;99.90;;;;;;4961548;28;20092;-82
2023/12/16 08:57:32;;;;;;;29.13;27.60;;;12.40;99.90;;;;;;4949615;28;20385;-83
2023/12/16 08:59:59;;;;;;;29.33;27.50;;;12.40;99.90;;;;;;4957716;28;20031;-83
2023/12/16 09:02:25;;;;;;;29.20;27.60;;;12.40;99.90;;;;;;4941911;28;20027;-84
2023/12/16 09:04:52;;;;;;;29.77;28.08;;;12.50;99.90;;;;;;4941438;28;20035;-83
2023/12/16 09:07:19;;;;;;;29.63;27.90;;;12.40;99.90;;;;;;4942009;28;20034;-83
2023/12/16 09:09:45;;;;;;;30.10;28.20;;;12.50;99.90;;;;;;4959410;28;20599;-88
2023/12/16 09:12:18;;;;;;;30.27;28.58;;;12.40;99.90;;;;;;4945962;28;20058;-89
2023/12/16 09:14:47;;;;;;;30.75;28.40;;;12.50;99.90;;;;;;4946135;28;20038;-87
2023/12/16 09:17:13;;;;;;;30.02;28.15;;;12.40;99.90;;;;;;4944136;28;20023;-88
2023/12/16 09:19:39;;;;;;;30.35;28.38;;;12.50;99.90;;;;;;4945389;28;20030;-89
2023/12/16 09:22:06;;;;;;;30.75;28.40;;;12.60;99.90;;;;;;4943312;28;20436;-88
2023/12/16 09:24:33;;;;;;;29.58;27.92;;;12.60;99.90;;;;;;4943251;28;20062;-89
2023/12/16 09:27:00;;;;;;;30.00;27.92;;;12.50;99.90;;;;;;4942956;28;20091;-89
2023/12/16 09:29:30;;;;;;;29.48;27.88;;;12.50;99.90;;;;;;4943015;28;20058;-90
2023/12/16 09:32:01;;;;;;;29.42;27.73;;;12.50;99.90;;;;;;4943666;28;20488;-90
2023/12/16 09:34:31;;;;;;;28.77;27.17;;;12.50;99.90;;;;;;4944365;28;20046;-92
2023/12/16 09:37:00;;;;;;;31.02;28.70;;;12.70;99.90;;;;;;4943898;28;20031;-89
2023/12/16 09:40:00;;;;;;;28.92;27.17;;;12.80;99.90;;;;;;4945270;28;20030;-88
2023/12/16 09:43:36;;;;;;;28.63;26.52;;;12.80;99.90;;;;;;4944001;28;20097;-89
2023/12/16 09:46:31;;;;;;;28.42;26.83;;;12.70;99.90;;;;;;4962462;28;20566;-88
2023/12/16 09:49:00;;;;;;;28.85;27.25;;;12.70;99.90;;;;;;4942609;28;20483;-88
2023/12/16 09:51:28;;;;;;;29.40;27.60;;;12.60;99.90;;;;;;4942742;28;20030;-88
2023/12/16 09:53:56;;;;;;;28.75;26.98;;;12.50;99.90;;;;;;4942818;28;20050;-89
2023/12/16 09:56:50;;;;;;;28.67;26.88;;;12.60;99.90;;;;;;4942645;28;20086;-88
2023/12/16 09:59:19;;;;;;;28.15;26.42;;;12.60;99.90;;;;;;4942967;28;20031;-87
2023/12/16 10:01:58;;;;;;;28.10;26.33;;;12.60;99.90;;;;;;4942634;28;20113;-88
2023/12/16 10:04:28;;;;;;;27.92;26.13;;;12.50;99.90;;;;;;4942721;28;20057;-89
2023/12/16 10:06:55;;;;;;;28.38;26.40;;;12.40;99.90;;;;;;4942425;28;20034;-87
2023/12/16 10:09:22;;;;;;;27.88;26.17;;;12.30;99.90;;;;;;4942565;28;20029;-87
2023/12/16 10:11:51;;;;;;;28.00;26.25;;;12.30;99.90;;;;;;4942429;28;20503;-89
2023/12/16 10:14:24;;;;;;;27.83;25.77;;;12.30;99.90;;;;;;4942231;28;20102;-88
2023/12/16 10:17:04;;;;;;;27.15;25.15;;;12.40;99.90;;;;;;4942458;28;20041;-88
2023/12/16 10:19:37;;;;;;;27.05;25.15;;;12.20;99.90;;;;;;4942699;28;20404;-88
2023/12/16 10:22:19;;;;;;;26.55;25.02;;;12.20;99.90;;;;;;4944117;28;20026;-89
2023/12/16 10:24:49;;;;;;;27.98;26.27;;;12.40;99.90;;;;;;4958537;28;20560;-88
2023/12/16 10:27:18;;;;;;;27.55;26.00;;;12.40;99.90;;;;;;4942278;28;20054;-88
2023/12/16 10:29:45;;;;;;;27.42;25.92;;;12.40;99.90;;;;;;4954493;29;20517;-89
2023/12/16 10:32:11;;;;;;;28.50;26.90;;;12.60;99.90;;;;;;4954660;28;20042;-89
2023/12/16 10:34:38;;;;;;;29.90;27.95;;;12.80;99.90;;;;;;4938931;28;20042;-90
2023/12/16 10:37:06;;;;;;;29.63;27.80;;;12.80;99.90;;;;;;4954735;28;20081;-89
2023/12/16 10:39:34;;;;;;;29.02;27.42;;;12.80;99.90;;;;;;4938671;29;20174;-88
2023/12/16 10:42:01;;;;;;;29.42;27.48;;;12.70;99.90;;;;;;4955705;28;20081;-90
2023/12/16 10:44:28;;;;;;;28.45;26.75;;;12.70;99.90;;;;;;4957936;28;20042;-90
2023/12/16 10:46:56;;;;;;;29.30;27.38;;;12.60;99.90;;;;;;4957967;28;20042;-90
2023/12/16 10:49:28;;;;;;;29.23;27.33;;;12.50;99.90;;;;;;4959367;28;20030;-87
2023/12/16 10:52:10;;;;;;;29.08;26.92;;;12.50;99.90;;;;;;4957742;28;20026;-86
2023/12/16 10:54:42;;;;;;;28.27;26.63;;;12.40;99.90;;;;;;4958108;28;20046;-89
2023/12/16 10:57:27;;;;;;;28.27;26.38;;;12.30;99.90;;;;;;4957852;28;20103;-88
2023/12/16 11:00:08;;;;;;;27.90;26.30;;;12.30;99.90;;;;;;4957744;28;20041;-88
2023/12/16 11:02:53;;;;;;;27.58;26.00;;;12.20;99.90;;;;;;4973877;28;20062;-91
2023/12/16 11:05:31;;;;;;;27.77;26.20;;;12.30;99.90;;;;;;4957964;28;20042;-88
2023/12/16 11:08:04;;;;;;;28.70;27.10;;;12.30;99.90;;;;;;4957459;28;20105;-87
2023/12/16 11:10:31;;;;;;;30.33;28.30;;;12.40;99.90;;;;;;4973685;28;20035;-89
2023/12/16 11:13:01;;;;;;;29.52;27.73;;;12.50;99.90;;;;;;4957684;28;20034;-89
2023/12/16 11:15:29;;;;;;;29.98;28.33;;;12.60;99.90;;;;;;4957550;28;20041;-87
2023/12/16 11:18:14;;;;;;;29.52;27.92;;;12.50;99.90;;;;;;4957672;28;20029;-89
2023/12/16 11:20:52;;;;;;;29.27;27.58;;;12.50;99.90;;;;;;4957587;28;20081;-87
2023/12/16 11:23:22;;;;;;;29.15;27.25;;;12.50;99.90;;;;;;4957772;28;20171;-87
2023/12/16 11:25:50;;;;;;;28.30;26.38;;;12.50;99.90;;;;;;4957633;28;20492;-91
2023/12/16 11:28:19;;;;;;;28.60;26.95;;;12.50;99.90;;;;;;4980267;28;20061;-88
2023/12/16 11:30:46;;;;;;;28.27;26.58;;;12.50;99.90;;;;;;4964330;28;20022;-86
2023/12/16 11:33:13;;;;;;;29.48;27.58;;;12.50;99.90;;;;;;4964233;28;20069;-86
2023/12/16 11:35:50;;;;;;;28.33;26.83;;;12.50;99.90;;;;;;4964178;28;20042;-88
2023/12/16 11:38:41;;;;;;;29.55;27.60;;;12.50;99.90;;;;;;4964475;28;20039;-87
2023/12/16 11:41:10;;;;;;;29.55;27.67;;;12.60;99.90;;;;;;4964555;28;20058;-86
2023/12/16 11:43:50;;;;;;;29.80;28.10;;;12.60;99.90;;;;;;4964305;28;20030;-85
2023/12/16 11:46:42;;;;;;;29.67;27.77;;;12.60;99.90;;;;;;4980456;28;20052;-87
2023/12/16 11:49:13;;;;;;;29.88;28.17;;;12.50;99.90;;;;;;4980230;28;20510;-85
2023/12/16 11:51:40;;;;;;;30.10;28.23;;;12.60;99.90;;;;;;4980379;28;20117;-86
2023/12/16 11:54:08;;;;;;;29.48;27.75;;;12.60;99.90;;;;;;4980036;28;20121;-88
2023/12/16 11:56:35;;;;;;;30.33;28.38;;;12.70;99.90;;;;;;4980774;28;20035;-89
2023/12/16 11:59:03;;;;;;;30.48;28.70;;;12.70;99.90;;;;;;4963993;28;20027;-89
2023/12/16 12:01:35;;;;;;;29.80;27.95;;;12.50;99.90;;;;;;4979936;28;20026;-88
2023/12/16 12:04:03;;;;;;;29.15;27.38;;;12.40;99.90;;;;;;4980187;28;20446;-88
2023/12/16 12:06:30;;;;;;;28.80;26.92;;;12.30;99.90;;;;;;4980296;28;20030;-89
2023/12/16 12:08:57;;;;;;;27.95;26.15;;;12.30;99.90;;;;;;4980219;28;20538;-88
2023/12/16 12:11:23;;;;;;;28.35;26.35;;;12.20;99.90;;;;;;4980257;28;20037;-87
2023/12/16 12:13:55;;;;;;;28.95;26.83;;;12.10;99.90;;;;;;4979866;28;20038;-88
2023/12/16 12:16:22;;;;;;;29.80;27.20;;;12.00;99.90;;;;;;4963556;28;20479;-88
2023/12/16 12:18:48;;;;;;;28.63;26.48;;;12.00;99.90;;;;;;4979767;28;20022;-88
2023/12/16 12:21:16;;;;;;;28.15;26.15;;;12.10;99.90;;;;;;4980273;28;20476;-89
2023/12/16 12:23:43;;;;;;;28.40;26.48;;;12.10;99.90;;;;;;4991714;28;20494;-87
2023/12/16 12:26:11;;;;;;;28.80;26.90;;;12.10;99.90;;;;;;4974028;28;20030;-89
2023/12/16 12:28:41;;;;;;;28.40;26.60;;;12.10;99.90;;;;;;4975964;28;20038;-88
2023/12/16 12:31:13;;;;;;;29.30;27.02;;;12.20;99.90;;;;;;4971886;28;20502;-90
2023/12/16 12:33:50;;;;;;;28.58;26.77;;;12.10;99.90;;;;;;4974381;28;20045;-90
2023/12/16 12:36:17;;;;;;;29.15;26.95;;;12.10;99.90;;;;;;4972674;28;20022;-91
2023/12/16 12:39:00;;;;;;;28.92;26.90;;;12.20;99.90;;;;;;4962068;28;20038;-92